createdAt,value
2022-10-19T00:01:27.126Z,98711.52
2022-10-19T00:05:23.507Z,98709.39
2022-10-19T00:08:44.685Z,98703.70
2022-10-19T00:12:21.815Z,98705.56
2022-10-19T00:16:19.309Z,98706.49
2022-10-19T00:19:58.658Z,98712.83
2022-10-19T00:23:38.574Z,98706.41
2022-10-19T00:26:59.298Z,98707.83
2022-10-19T00:30:56.778Z,98705.71
2022-10-19T00:34:18.297Z,98710.23
2022-10-19T00:37:55.174Z,98701.04
2022-10-19T00:41:35.764Z,98702.63
2022-10-19T00:45:29.469Z,98700.14
2022-10-19T00:49:33.072Z,98693.71
2022-10-19T00:53:12.810Z,98690.80
2022-10-19T00:56:35.122Z,98683.55
2022-10-19T01:00:11.866Z,98685.30
2022-10-19T01:03:49.282Z,98692.95
2022-10-19T01:07:27.838Z,98690.80
2022-10-19T01:11:11.903Z,98683.46
2022-10-19T01:15:13.727Z,98675.70
2022-10-19T01:18:45.860Z,98670.43
2022-10-19T01:22:41.599Z,98670.73
2022-10-19T01:26:53.921Z,98672.38
2022-10-19T01:30:52.466Z,98676.71
2022-10-19T01:34:55.081Z,98680.09
2022-10-19T01:38:34.362Z,98680.80
2022-10-19T01:42:34.755Z,98678.02
2022-10-19T01:46:30.362Z,98675.60
2022-10-19T01:49:59.943Z,98677.23
2022-10-19T01:53:40.869Z,98680.48
2022-10-19T01:57:32.911Z,98672.16
2022-10-19T02:00:55.924Z,98665.13
2022-10-19T02:04:32.818Z,98659.29
2022-10-19T02:08:14.046Z,98654.29
2022-10-19T02:12:09.551Z,98654.59
2022-10-19T02:15:52.942Z,98657.04
2022-10-19T02:19:33.193Z,98653.88
2022-10-19T02:22:53.956Z,98655.21
2022-10-19T02:26:32.302Z,98657.91
2022-10-19T02:30:13.345Z,98657.34
2022-10-19T02:33:47.132Z,98663.67
2022-10-19T02:37:25.685Z,98664.06
2022-10-19T02:41:41.632Z,98657.27
2022-10-19T02:45:05.233Z,98653.13
2022-10-19T02:49:01.471Z,98653.28
2022-10-19T02:52:22.382Z,98659.86
2022-10-19T02:55:59.955Z,98665.92
2022-10-19T02:59:37.631Z,98668.44
2022-10-19T03:03:15.386Z,98670.92
2022-10-19T03:06:53.020Z,98666.34
2022-10-19T03:10:30.759Z,98664.48
2022-10-19T03:14:08.430Z,98667.52
2022-10-19T03:17:46.066Z,98656.86
2022-10-19T03:21:23.806Z,98659.16
2022-10-19T03:25:01.463Z,98662.23
2022-10-19T03:28:59.022Z,98657.70
2022-10-19T03:32:19.972Z,98664.70
2022-10-19T03:36:19.767Z,98658.56
2022-10-19T03:40:00.207Z,98652.93
2022-10-19T03:43:20.722Z,98655.15
2022-10-19T03:46:58.551Z,98652.04
2022-10-19T03:51:00.683Z,98655.46
2022-10-19T03:54:24.964Z,98656.45
2022-10-19T03:57:59.222Z,98650.84
2022-10-19T04:01:39.838Z,98648.45
2022-10-19T04:05:14.797Z,98649.20
2022-10-19T04:08:53.285Z,98642.39
2022-10-19T04:12:30.004Z,98643.95
2022-10-19T04:16:09.584Z,98637.05
2022-10-19T04:19:45.253Z,98637.55
2022-10-19T04:23:41.686Z,98643.59
2022-10-19T04:27:02.267Z,98644.81
2022-10-19T04:30:39.831Z,98645.47
2022-10-19T04:34:39.211Z,98644.29
2022-10-19T04:38:01.414Z,98642.06
2022-10-19T04:41:39.495Z,98639.45
2022-10-19T04:45:16.937Z,98635.65
2022-10-19T04:49:16.420Z,98626.20
2022-10-19T04:52:40.368Z,98624.26
2022-10-19T04:56:21.116Z,98617.77
2022-10-19T04:59:55.722Z,98614.45
2022-10-19T05:03:33.358Z,98609.70
2022-10-19T05:07:11.237Z,98610.71
2022-10-19T05:10:48.764Z,98605.28
2022-10-19T05:18:23.109Z,98609.41
2022-10-19T05:21:43.855Z,98609.90
2022-10-19T05:25:40.827Z,98610.64
2022-10-19T05:29:02.956Z,98606.69
2022-10-19T05:32:57.680Z,98610.56
2022-10-19T05:36:21.081Z,98608.73
2022-10-19T05:39:55.767Z,98609.73
2022-10-19T05:44:00.170Z,98611.04
2022-10-19T05:47:39.569Z,98611.61
2022-10-19T05:51:20.611Z,98613.59
2022-10-19T05:54:41.355Z,98616.76
2022-10-19T05:58:19.145Z,98620.86
2022-10-19T06:01:56.869Z,98617.84
2022-10-19T06:05:36.793Z,98623.64
2022-10-19T06:09:35.346Z,98627.51
2022-10-19T06:13:15.928Z,98631.25
2022-10-19T06:16:36.589Z,98632.66
2022-10-19T06:20:14.622Z,98638.33
2022-10-19T06:24:11.127Z,98647.98
2022-10-19T06:27:32.271Z,98642.36
2022-10-19T06:31:30.626Z,98642.79
2022-10-19T06:34:56.350Z,98641.42
2022-10-19T06:38:29.061Z,98640.06
2022-10-19T06:42:06.739Z,98641.73
2022-10-19T06:45:44.535Z,98641.58
2022-10-19T06:49:22.919Z,98647.27
2022-10-19T06:52:59.985Z,98657.58
2022-10-19T06:56:37.509Z,98658.12
2022-10-19T07:00:34.153Z,98659.34
2022-10-19T07:03:55.485Z,98660.35
2022-10-19T07:07:32.989Z,98660.42
2022-10-19T07:11:29.320Z,98667.02
2022-10-19T07:14:51.314Z,98665.91
2022-10-19T07:18:47.004Z,98670.08
2022-10-19T07:22:07.691Z,98668.61
2022-10-19T07:25:45.239Z,98672.84
2022-10-19T07:29:23.443Z,98678.77
2022-10-19T07:33:19.358Z,98681.70
2022-10-19T07:36:45.131Z,98685.14
2022-10-19T07:40:17.978Z,98684.37
2022-10-19T07:43:57.841Z,98682.36
2022-10-19T07:47:34.548Z,98676.31
2022-10-19T07:51:13.049Z,98680.05
2022-10-19T07:54:49.781Z,98676.45
2022-10-19T07:58:45.734Z,98676.77
2022-10-19T08:02:14.228Z,98672.54
2022-10-19T08:05:44.321Z,98677.02
2022-10-19T08:09:52.890Z,98678.48
2022-10-19T08:13:33.917Z,98677.81
2022-10-19T08:16:54.605Z,98681.14
2022-10-19T08:20:32.762Z,98679.93
2022-10-19T08:24:11.694Z,98678.03
2022-10-19T08:27:47.930Z,98678.52
2022-10-19T08:31:25.254Z,98676.85
2022-10-19T08:35:22.000Z,98674.65
2022-10-19T08:38:44.967Z,98675.73
2022-10-19T08:42:28.592Z,98679.78
2022-10-19T08:46:14.209Z,98683.96
2022-10-19T08:49:36.485Z,98686.50
2022-10-19T08:53:43.516Z,98686.79
2022-10-19T08:57:07.357Z,98689.46
2022-10-19T09:00:47.427Z,98689.00
2022-10-19T09:04:47.150Z,98681.89
2022-10-19T09:08:13.094Z,98679.11
2022-10-19T09:11:49.471Z,98683.05
2022-10-19T09:15:46.595Z,98680.75
2022-10-19T09:19:30.282Z,98686.73
2022-10-19T09:23:20.769Z,98689.35
2022-10-19T09:27:03.363Z,98688.04
2022-10-19T09:30:30.116Z,98688.56
2022-10-19T09:34:06.896Z,98690.96
2022-10-19T09:37:45.680Z,98699.69
2022-10-19T09:41:43.308Z,98694.90
2022-10-19T09:45:29.051Z,98702.25
2022-10-19T09:49:08.245Z,98701.42
2022-10-19T09:53:15.381Z,98702.46
2022-10-19T09:56:56.732Z,98707.23
2022-10-19T10:00:23.104Z,98702.05
2022-10-19T10:04:16.598Z,98700.39
2022-10-19T10:07:56.014Z,98692.91
2022-10-19T10:11:37.642Z,98696.46
2022-10-19T10:14:58.398Z,98699.07
2022-10-19T10:18:58.186Z,98697.27
2022-10-19T10:22:33.112Z,98700.69
2022-10-19T10:25:58.248Z,98693.51
2022-10-19T10:29:36.780Z,98696.66
2022-10-19T10:33:27.111Z,98695.25
2022-10-19T10:36:59.993Z,98698.34
2022-10-19T10:40:39.121Z,98702.56
2022-10-19T10:44:20.908Z,98705.48
2022-10-19T10:47:53.634Z,98701.16
2022-10-19T10:51:35.287Z,98706.52
2022-10-19T10:55:11.252Z,98702.70
2022-10-19T10:58:57.057Z,98703.11
2022-10-19T11:02:55.671Z,98702.93
2022-10-19T11:06:44.401Z,98699.01
2022-10-19T11:10:33.599Z,98706.20
2022-10-19T11:14:49.413Z,98701.90
2022-10-19T11:18:46.432Z,98702.85
2022-10-19T11:22:26.251Z,98701.13
2022-10-19T11:26:23.125Z,98700.48
2022-10-19T11:30:05.941Z,98692.10
2022-10-19T11:34:48.426Z,98692.20
2022-10-19T11:38:24.159Z,98689.16
2022-10-19T11:42:43.451Z,98691.60
2022-10-19T11:46:32.037Z,98688.27
2022-10-19T11:50:34.613Z,98685.39
2022-10-19T11:54:53.901Z,98685.70
2022-10-19T11:58:50.000Z,98692.70
2022-10-19T12:02:42.807Z,98691.98
2022-10-19T12:06:44.698Z,98685.48
2022-10-19T12:10:41.131Z,98674.19
2022-10-19T12:14:46.251Z,98667.75
2022-10-19T12:18:48.800Z,98667.91
2022-10-19T12:22:21.119Z,98661.36
2022-10-19T12:25:53.229Z,98659.96
2022-10-19T12:29:29.882Z,98658.67
2022-10-19T12:33:44.899Z,98658.52
2022-10-19T12:37:26.565Z,98659.20
2022-10-19T12:41:02.120Z,98655.27
2022-10-19T12:44:58.656Z,98657.63
2022-10-19T12:48:44.772Z,98653.05
2022-10-19T12:52:08.320Z,98654.06
2022-10-19T12:56:31.547Z,98659.73
2022-10-19T13:00:20.480Z,98658.61
2022-10-19T13:03:47.346Z,98656.76
2022-10-19T13:07:20.712Z,98656.46
2022-10-19T13:11:14.835Z,98660.45
2022-10-19T13:14:57.571Z,98668.66
2022-10-19T13:19:00.036Z,98665.31
2022-10-19T13:22:27.939Z,98666.17
2022-10-19T13:26:44.582Z,98661.95
2022-10-19T13:30:44.120Z,98668.88
2022-10-19T13:34:25.311Z,98689.39
2022-10-19T13:38:09.197Z,98698.98
2022-10-19T13:41:46.143Z,98696.90
2022-10-19T13:45:24.671Z,98692.14
2022-10-19T13:49:02.407Z,98690.43
2022-10-19T13:53:19.535Z,98692.89
2022-10-19T13:57:39.827Z,98688.52
2022-10-19T14:01:09.015Z,98696.48
2022-10-19T14:04:57.004Z,98693.55
2022-10-19T14:08:46.284Z,98692.77
2022-10-19T14:12:24.827Z,98692.02
2022-10-19T14:15:58.038Z,98690.98
2022-10-19T14:19:46.824Z,98693.09
2022-10-19T14:23:23.450Z,98693.38
2022-10-19T14:26:48.562Z,98690.52
2022-10-19T14:30:34.172Z,98689.59
2022-10-19T14:34:15.014Z,98686.99
2022-10-19T14:38:00.517Z,98689.83
2022-10-19T14:41:28.304Z,98689.31
2022-10-19T14:45:04.081Z,98686.13
2022-10-19T14:49:05.341Z,98691.30
2022-10-19T14:52:49.165Z,98687.27
2022-10-19T15:00:24.115Z,98687.21
2022-10-19T15:04:12.772Z,98684.50
2022-10-19T15:07:41.292Z,98687.92
2022-10-19T15:11:39.963Z,98695.88
2022-10-19T15:15:16.769Z,98699.20
2022-10-19T15:18:49.279Z,98699.02
2022-10-19T15:22:39.694Z,98699.66
2022-10-19T15:26:27.780Z,98701.00
2022-10-19T15:30:23.515Z,98702.29
2022-10-19T15:34:29.033Z,98709.37
2022-10-19T15:38:05.697Z,98707.40
2022-10-19T15:41:55.558Z,98705.52
2022-10-19T15:45:36.393Z,98711.70
2022-10-19T15:49:56.514Z,98707.55
2022-10-19T15:53:25.210Z,98711.70
2022-10-19T15:57:33.248Z,98717.10
2022-10-19T16:01:19.594Z,98722.03
2022-10-19T16:05:30.389Z,98728.18
2022-10-19T16:08:58.717Z,98727.40
2022-10-19T16:12:37.438Z,98733.59
2022-10-19T16:16:12.234Z,98747.50
2022-10-19T16:20:06.109Z,98750.58
2022-10-19T16:23:30.509Z,98765.96
2022-10-19T16:27:24.450Z,98766.95
2022-10-19T16:30:50.947Z,98769.10
2022-10-19T16:34:25.690Z,98769.21
2022-10-19T16:38:00.839Z,98775.77
2022-10-19T16:41:57.168Z,98778.39
2022-10-19T16:45:23.891Z,98777.19
2022-10-19T16:49:20.488Z,98782.66
2022-10-19T16:52:44.226Z,98782.71
2022-10-19T16:56:28.185Z,98788.84
2022-10-19T17:00:03.006Z,98789.04
2022-10-19T17:03:41.328Z,98794.27
2022-10-19T17:07:26.066Z,98800.62
2022-10-19T17:11:34.923Z,98807.61
2022-10-19T17:15:41.427Z,98817.36
2022-10-19T17:19:01.734Z,98820.00
2022-10-19T17:22:37.495Z,98826.36
2022-10-19T17:26:37.832Z,98832.42
2022-10-19T17:30:18.406Z,98834.76
2022-10-19T17:33:43.674Z,98838.17
2022-10-19T17:37:38.750Z,98844.05
2022-10-19T17:41:19.303Z,98845.77
2022-10-19T17:44:40.260Z,98846.09
2022-10-19T17:48:20.244Z,98852.42
2022-10-19T17:52:04.270Z,98857.20
2022-10-19T17:55:36.910Z,98853.92
2022-10-19T17:59:12.378Z,98855.94
2022-10-19T18:02:49.197Z,98860.45
2022-10-19T18:06:34.730Z,98864.27
2022-10-19T18:10:03.947Z,98865.69
2022-10-19T18:14:06.335Z,98863.58
2022-10-19T18:17:27.915Z,98868.17
2022-10-19T18:21:11.464Z,98864.38
2022-10-19T18:25:04.809Z,98867.58
2022-10-19T18:28:29.255Z,98870.70
2022-10-19T18:35:42.369Z,98868.95
2022-10-19T18:39:21.106Z,98869.81
2022-10-19T18:42:57.728Z,98874.09
2022-10-19T18:46:57.881Z,98880.60
2022-10-19T18:50:37.656Z,98887.32
2022-10-19T18:57:56.111Z,98890.06
2022-10-19T19:02:01.395Z,98890.73
2022-10-19T19:05:24.009Z,98893.43
2022-10-19T19:09:02.283Z,98891.11
2022-10-19T19:12:38.787Z,98894.63
2022-10-19T19:16:41.586Z,98903.70
2022-10-19T19:20:23.493Z,98902.17
2022-10-19T19:24:07.110Z,98905.61
2022-10-19T19:27:31.581Z,98907.64
2022-10-19T19:31:06.900Z,98913.02
2022-10-19T19:35:08.974Z,98916.61
2022-10-19T19:38:31.149Z,98922.31
2022-10-19T19:42:08.953Z,98929.34
2022-10-19T19:46:09.200Z,98930.59
2022-10-19T19:49:50.911Z,98934.96
2022-10-19T19:53:30.875Z,98934.23
2022-10-19T19:57:00.549Z,98937.95
2022-10-19T20:00:55.165Z,98942.57
2022-10-19T20:04:41.829Z,98949.17
2022-10-19T20:08:06.451Z,98956.94
2022-10-19T20:11:42.604Z,98961.46
2022-10-19T20:15:19.007Z,98965.14
2022-10-19T20:19:05.481Z,98970.04
2022-10-19T20:22:59.376Z,98970.75
2022-10-19T20:26:41.726Z,98977.94
2022-10-19T20:30:24.085Z,98977.87
2022-10-19T20:34:12.506Z,98984.86
2022-10-19T20:37:52.262Z,98988.41
2022-10-19T20:41:35.356Z,98987.18
2022-10-19T20:44:59.081Z,98989.47
2022-10-19T20:48:59.181Z,98987.40
2022-10-19T20:52:38.943Z,98986.51
2022-10-19T20:56:29.537Z,98992.64
2022-10-19T20:59:50.580Z,98992.01
2022-10-19T21:03:28.708Z,98989.99
2022-10-19T21:07:25.877Z,98994.65
2022-10-19T21:11:37.481Z,98993.12
2022-10-19T21:14:59.327Z,98996.30
2022-10-19T21:18:37.434Z,98995.81
2022-10-19T21:22:14.599Z,98995.27
2022-10-19T21:26:17.128Z,98990.83
2022-10-19T21:29:56.574Z,98986.38
2022-10-19T21:33:36.050Z,98983.17
2022-10-19T21:37:04.925Z,98984.80
2022-10-19T21:40:39.507Z,98986.41
2022-10-19T21:44:35.875Z,98986.00
2022-10-19T21:47:56.620Z,98981.18
2022-10-19T21:51:44.780Z,98983.89
2022-10-19T21:55:34.542Z,98988.80
2022-10-19T21:59:14.742Z,98985.90
2022-10-19T22:02:36.089Z,98987.35
2022-10-19T22:06:15.764Z,98988.01
2022-10-19T22:10:00.768Z,98989.39
2022-10-19T22:13:35.521Z,98993.80
2022-10-19T22:17:08.953Z,98993.10
2022-10-19T22:21:14.925Z,98993.71
2022-10-19T22:24:54.821Z,98999.35
2022-10-19T22:28:18.000Z,99001.90
2022-10-19T22:31:53.140Z,99001.09
2022-10-19T22:35:30.637Z,98998.17
2022-10-19T22:39:29.337Z,99003.34
2022-10-19T22:42:50.113Z,99001.12
2022-10-19T22:46:27.919Z,99005.41
2022-10-19T22:50:06.882Z,99007.27
2022-10-19T22:53:43.232Z,99009.06
2022-10-19T22:57:22.827Z,99003.95
2022-10-19T23:01:17.341Z,99015.16
2022-10-19T23:04:38.350Z,99011.02
2022-10-19T23:08:16.254Z,99013.49
2022-10-19T23:11:56.178Z,99011.23
2022-10-19T23:15:51.020Z,99012.67
2022-10-19T23:19:12.058Z,99013.34
2022-10-19T23:23:08.396Z,99016.45
2022-10-19T23:26:28.968Z,99017.23
2022-10-19T23:30:26.558Z,99019.44
2022-10-19T23:33:51.147Z,99022.19
2022-10-19T23:37:25.773Z,99023.35
2022-10-19T23:41:03.674Z,99033.63
2022-10-19T23:44:40.527Z,99036.84
2022-10-19T23:48:18.271Z,99047.47
2022-10-19T23:51:55.826Z,99057.75
2022-10-19T23:55:33.435Z,99056.81
2022-10-19T23:59:11.177Z,99058.08
